Time,TemperatureF,DewpointF,PressureIn,WindDirection,WindDirectionDegrees,WindSpeedMPH,WindSpeedGustMPH,Humidity,HourlyPrecipIn,Conditions,Clouds,dailyrainin,SoftwareType,DateUTC
2017-05-30 00:02:00,64.8,62.4,30.03,ENE,58,1.0,2.0,92,0.00,,---,0.00,VWS V14.01,2017-05-30 04:02:00,
2017-05-30 00:07:00,64.7,62.6,30.03,East,79,2.0,3.0,93,0.00,,---,0.00,VWS V14.01,2017-05-30 04:07:00,
2017-05-30 00:12:00,64.5,62.4,30.03,NE,46,1.0,3.0,93,0.00,,---,0.00,VWS V14.01,2017-05-30 04:12:00,
2017-05-30 00:17:00,64.5,62.4,30.03,ESE,113,1.0,4.0,93,0.00,,---,0.00,VWS V14.01,2017-05-30 04:17:00,
2017-05-30 00:22:00,64.4,62.3,30.03,East,89,0.0,4.0,93,0.00,,---,0.00,VWS V14.01,2017-05-30 04:22:00,
2017-05-30 00:27:00,64.4,62.3,30.03,East,101,0.0,4.0,93,0.00,,---,0.00,VWS V14.01,2017-05-30 04:27:00,
2017-05-30 00:32:00,64.4,62.3,30.03,SSE,165,0.0,1.0,93,0.00,,---,0.00,VWS V14.01,2017-05-30 04:32:00,
2017-05-30 00:37:00,64.3,62.2,30.04,ESE,103,0.0,4.0,93,0.00,,---,0.00,VWS V14.01,2017-05-30 04:37:00,
2017-05-30 00:42:00,64.3,62.2,30.03,NE,51,5.0,5.0,93,0.00,,---,0.00,VWS V14.01,2017-05-30 04:42:00,
2017-05-30 00:47:00,64.2,62.1,30.03,ESE,110,0.0,7.0,93,0.00,,---,0.00,VWS V14.01,2017-05-30 04:47:00,
2017-05-30 00:52:00,64.1,62.0,30.04,SE,136,1.0,7.0,93,0.00,,---,0.00,VWS V14.01,2017-05-30 04:52:00,
2017-05-30 00:57:00,64.1,62.3,30.04,ESE,123,0.0,7.0,94,0.00,,---,0.00,VWS V14.01,2017-05-30 04:57:00,
2017-05-30 01:02:00,64.1,62.3,30.04,ESE,120,0.0,1.0,94,0.00,,---,0.00,VWS V14.01,2017-05-30 05:02:00,
2017-05-30 01:07:00,64.1,62.3,30.04,NE,52,2.0,2.0,94,0.00,,---,0.00,VWS V14.01,2017-05-30 05:07:00,
2017-05-30 01:12:00,63.9,61.8,30.04,NE,41,3.0,4.0,93,0.00,,---,0.00,VWS V14.01,2017-05-30 05:12:00,
2017-05-30 01:17:00,63.5,61.4,30.04,NNE,23,1.0,4.0,93,0.00,,---,0.00,VWS V14.01,2017-05-30 05:17:00,
2017-05-30 01:22:00,63.4,61.7,30.05,SE,130,1.0,4.0,94,0.00,,---,0.00,VWS V14.01,2017-05-30 05:22:00,
2017-05-30 01:27:00,63.2,61.5,30.05,NE,44,0.0,4.0,94,0.00,,---,0.00,VWS V14.01,2017-05-30 05:27:00,
2017-05-30 01:32:00,63.0,61.0,30.05,East,86,1.0,2.0,93,0.00,,---,0.00,VWS V14.01,2017-05-30 05:32:00,
2017-05-30 01:37:00,62.8,60.8,30.05,East,95,2.0,4.0,93,0.00,,---,0.00,VWS V14.01,2017-05-30 05:37:00,
2017-05-30 01:42:00,62.6,60.8,30.05,NE,52,0.0,4.0,94,0.00,,---,0.00,VWS V14.01,2017-05-30 05:42:00,
2017-05-30 01:47:00,62.5,60.8,30.06,East,99,1.0,4.0,94,0.00,,---,0.00,VWS V14.01,2017-05-30 05:47:00,
2017-05-30 01:52:00,62.4,60.7,30.06,SE,140,2.0,4.0,94,0.00,,---,0.00,VWS V14.01,2017-05-30 05:52:00,
2017-05-30 01:57:00,62.3,60.6,30.05,ESE,111,1.0,4.0,94,0.00,,---,0.00,VWS V14.01,2017-05-30 05:57:00,
2017-05-30 02:02:00,62.2,60.5,30.05,ESE,108,2.0,2.0,94,0.00,,---,0.00,VWS V14.01,2017-05-30 06:02:00,
2017-05-30 02:07:00,62.1,60.4,30.06,ESE,119,3.0,3.0,94,0.00,,---,0.00,VWS V14.01,2017-05-30 06:07:00,
2017-05-30 02:12:00,62.1,60.4,30.06,ESE,118,1.0,3.0,94,0.00,,---,0.00,VWS V14.01,2017-05-30 06:12:00,
2017-05-30 02:17:00,62.0,60.3,30.06,ESE,115,1.0,4.0,94,0.00,,---,0.00,VWS V14.01,2017-05-30 06:17:00,
2017-05-30 02:22:00,61.8,60.1,30.05,NE,51,2.0,5.0,94,0.00,,---,0.00,VWS V14.01,2017-05-30 06:22:00,
2017-05-30 02:27:00,61.6,60.2,30.05,ENE,60,3.0,5.0,95,0.00,,---,0.00,VWS V14.01,2017-05-30 06:27:00,
2017-05-30 02:32:00,61.4,60.0,30.06,NE,34,5.0,5.0,95,0.00,,---,0.00,VWS V14.01,2017-05-30 06:32:00,
2017-05-30 02:37:00,61.3,59.9,30.06,East,89,0.0,5.0,95,0.00,,---,0.00,VWS V14.01,2017-05-30 06:37:00,
2017-05-30 02:42:00,61.2,59.8,30.06,East,94,1.0,5.0,95,0.00,,---,0.00,VWS V14.01,2017-05-30 06:42:00,
2017-05-30 02:47:00,61.2,59.8,30.06,ESE,119,0.0,5.0,95,0.00,,---,0.00,VWS V14.01,2017-05-30 06:47:00,
2017-05-30 02:52:00,61.1,59.7,30.06,ENE,58,0.0,5.0,95,0.00,,---,0.00,VWS V14.01,2017-05-30 06:52:00,
2017-05-30 02:57:00,61.1,59.7,30.06,ENE,58,0.0,5.0,95,0.00,,---,0.00,VWS V14.01,2017-05-30 06:57:00,
2017-05-30 03:02:00,61.1,59.7,30.06,ESE,105,0.0,3.0,95,0.00,,---,0.00,VWS V14.01,2017-05-30 07:02:00,
2017-05-30 03:07:00,61.0,59.6,30.05,ENE,60,0.0,4.0,95,0.00,,---,0.00,VWS V14.01,2017-05-30 07:07:00,
2017-05-30 03:12:00,61.0,59.9,30.05,ENE,60,1.0,4.0,96,0.00,,---,0.00,VWS V14.01,2017-05-30 07:12:00,
2017-05-30 03:17:00,60.9,59.5,30.05,ESE,103,1.0,4.0,95,0.00,,---,0.00,VWS V14.01,2017-05-30 07:17:00,
2017-05-30 03:22:00,60.9,59.8,30.04,ESE,103,0.0,4.0,96,0.00,,---,0.00,VWS V14.01,2017-05-30 07:22:00,
2017-05-30 03:27:00,60.9,59.8,30.04,East,82,0.0,4.0,96,0.00,,---,0.00,VWS V14.01,2017-05-30 07:27:00,
2017-05-30 03:32:00,60.9,59.8,30.04,ENE,77,1.0,2.0,96,0.00,,---,0.00,VWS V14.01,2017-05-30 07:32:00,
2017-05-30 03:37:00,60.9,59.8,30.04,NNE,22,0.0,2.0,96,0.00,,---,0.00,VWS V14.01,2017-05-30 07:37:00,
2017-05-30 03:42:00,60.9,59.8,30.05,NNE,19,0.0,2.0,96,0.00,,---,0.00,VWS V14.01,2017-05-30 07:42:00,
2017-05-30 03:47:00,60.9,59.8,30.04,East,82,0.0,2.0,96,0.00,,---,0.00,VWS V14.01,2017-05-30 07:47:00,
2017-05-30 03:52:00,60.9,59.8,30.04,East,82,0.0,2.0,96,0.00,,---,0.00,VWS V14.01,2017-05-30 07:52:00,
2017-05-30 03:57:00,60.9,59.8,30.05,East,99,1.0,2.0,96,0.00,,---,0.00,VWS V14.01,2017-05-30 07:57:00,
2017-05-30 04:02:00,60.8,59.7,30.05,East,99,0.0,0.0,96,0.00,,---,0.00,VWS V14.01,2017-05-30 08:02:00,
2017-05-30 04:07:00,60.8,59.7,30.05,North,7,0.0,2.0,96,0.00,,---,0.00,VWS V14.01,2017-05-30 08:07:00,
2017-05-30 04:12:00,60.7,59.6,30.05,North,7,0.0,2.0,96,0.00,,---,0.00,VWS V14.01,2017-05-30 08:12:00,
2017-05-30 04:17:00,60.7,59.6,30.05,NE,56,0.0,2.0,96,0.00,,---,0.00,VWS V14.01,2017-05-30 08:17:00,
2017-05-30 04:22:00,60.7,59.8,30.05,NE,56,0.0,2.0,97,0.00,,---,0.00,VWS V14.01,2017-05-30 08:22:00,
2017-05-30 04:27:00,60.7,59.8,30.05,NE,56,0.0,2.0,97,0.00,,---,0.00,VWS V14.01,2017-05-30 08:27:00,
2017-05-30 04:32:00,60.7,59.8,30.05,NE,56,0.0,1.0,97,0.00,,---,0.00,VWS V14.01,2017-05-30 08:32:00,
2017-05-30 04:37:00,60.7,59.8,30.05,ESE,121,1.0,2.0,97,0.00,,---,0.00,VWS V14.01,2017-05-30 08:37:00,
2017-05-30 04:42:00,60.6,59.8,30.05,ENE,57,1.0,2.0,97,0.00,,---,0.00,VWS V14.01,2017-05-30 08:42:00,
2017-05-30 04:47:00,60.6,59.8,30.05,ENE,58,0.0,2.0,97,0.00,,---,0.00,VWS V14.01,2017-05-30 08:47:00,
2017-05-30 04:52:00,60.6,59.8,30.05,ENE,58,0.0,2.0,97,0.00,,---,0.00,VWS V14.01,2017-05-30 08:52:00,
2017-05-30 04:57:00,60.6,59.5,30.05,ENE,59,0.0,2.0,96,0.00,,---,0.00,VWS V14.01,2017-05-30 08:57:00,
2017-05-30 05:02:00,60.5,59.4,30.05,ENE,59,0.0,1.0,96,0.00,,---,0.00,VWS V14.01,2017-05-30 09:02:00,
2017-05-30 05:07:00,60.5,59.4,30.05,ENE,59,1.0,1.0,96,0.00,,---,0.00,VWS V14.01,2017-05-30 09:07:00,
2017-05-30 05:12:00,60.5,59.4,30.05,ENE,63,0.0,2.0,96,0.00,,---,0.00,VWS V14.01,2017-05-30 09:12:00,
2017-05-30 05:17:00,60.4,59.3,30.05,NE,46,1.0,3.0,96,0.00,,---,0.00,VWS V14.01,2017-05-30 09:17:00,
2017-05-30 05:22:00,60.3,59.2,30.05,South,185,0.0,3.0,96,0.00,,---,0.00,VWS V14.01,2017-05-30 09:22:00,
2017-05-30 05:27:00,60.3,59.2,30.05,SE,144,0.0,3.0,96,0.00,,---,0.00,VWS V14.01,2017-05-30 09:27:00,
2017-05-30 05:32:00,60.2,59.3,30.05,SE,144,1.0,1.0,97,0.00,,---,0.00,VWS V14.01,2017-05-30 09:32:00,
2017-05-30 05:37:00,60.2,59.3,30.05,East,100,2.0,2.0,97,0.00,,---,0.00,VWS V14.01,2017-05-30 09:37:00,
2017-05-30 05:42:00,60.1,59.2,30.06,East,100,0.0,2.0,97,0.00,,---,0.00,VWS V14.01,2017-05-30 09:42:00,
2017-05-30 05:47:00,60.1,59.2,30.06,ESE,116,0.0,2.0,97,0.00,,---,0.00,VWS V14.01,2017-05-30 09:47:00,
2017-05-30 05:52:00,60.0,59.2,30.06,SE,146,0.0,2.0,97,0.00,,---,0.00,VWS V14.01,2017-05-30 09:52:00,
2017-05-30 05:57:00,60.0,59.2,30.06,ESE,116,0.0,2.0,97,0.00,,---,0.00,VWS V14.01,2017-05-30 09:57:00,
2017-05-30 06:07:00,59.9,58.8,30.06,ESE,117,0.0,3.0,96,0.00,,---,0.00,VWS V14.01,2017-05-30 10:07:00,
2017-05-30 06:12:00,59.9,58.8,30.07,NE,46,1.0,3.0,96,0.00,,---,0.00,VWS V14.01,2017-05-30 10:12:00,
2017-05-30 06:17:00,59.8,58.7,30.06,NE,46,0.0,3.0,96,0.00,,---,0.00,VWS V14.01,2017-05-30 10:17:00,
2017-05-30 06:22:00,59.8,58.7,30.07,NE,50,1.0,3.0,96,0.00,,---,0.00,VWS V14.01,2017-05-30 10:22:00,
2017-05-30 06:27:00,59.8,59.0,30.07,SE,129,0.0,3.0,97,0.00,,---,0.00,VWS V14.01,2017-05-30 10:27:00,
2017-05-30 06:32:00,59.8,59.0,30.07,SE,127,0.0,2.0,97,0.00,,---,0.00,VWS V14.01,2017-05-30 10:32:00,
2017-05-30 06:37:00,59.8,59.0,30.06,SE,127,0.0,2.0,97,0.00,,---,0.00,VWS V14.01,2017-05-30 10:37:00,
2017-05-30 06:42:00,59.8,59.0,30.07,ESE,122,0.0,3.0,97,0.00,,---,0.00,VWS V14.01,2017-05-30 10:42:00,
2017-05-30 06:47:00,59.8,59.0,30.07,ESE,122,0.0,3.0,97,0.00,,---,0.00,VWS V14.01,2017-05-30 10:47:00,